Time;durP1;ratioP1;P1;durP2;ratioP2;P2;SDS_P1;SDS_P2;PMS_P1;PMS_P2;Temp;Humidity;BMP_temperature;BMP_pressure;BME280_temperature;BME280_humidity;BME280_pressure;Samples;Min_cycle;Max_cycle;Signal;HPM_P1;HPM_P2
2021/12/15 00:02:09;;;;;;;33.33;15.38;;;;;;;5.00;100.00;100159.09;4994631;28;20034;-72
2021/12/15 00:04:34;;;;;;;30.85;14.68;;;;;;;4.91;100.00;100149.16;5011073;28;20029;-72
2021/12/15 00:07:00;;;;;;;29.25;14.38;;;;;;;5.01;100.00;100165.28;5018596;28;20033;-72
2021/12/15 00:09:27;;;;;;;36.47;14.68;;;;;;;5.00;100.00;100161.75;5008705;28;20037;-71
2021/12/15 00:11:52;;;;;;;32.58;13.50;;;;;;;5.00;100.00;100155.53;4993682;28;20416;-72
2021/12/15 00:14:19;;;;;;;29.00;13.43;;;;;;;4.99;100.00;100157.38;5001831;28;20022;-72
2021/12/15 00:16:46;;;;;;;30.65;13.50;;;;;;;5.00;100.00;100155.53;5011017;28;20072;-72
2021/12/15 00:19:12;;;;;;;29.60;13.10;;;;;;;4.90;100.00;100139.41;5011931;28;20392;-71
2021/12/15 00:21:38;;;;;;;26.27;12.52;;;;;;;4.99;100.00;100162.72;5014490;28;20033;-72
2021/12/15 00:24:06;;;;;;;27.25;13.18;;;;;;;4.95;100.00;100150.59;5007852;28;20097;-71
2021/12/15 00:26:32;;;;;;;39.97;14.95;;;;;;;4.82;100.00;100140.06;5007621;28;20026;-72
2021/12/15 00:28:57;;;;;;;31.73;14.05;;;;;;;4.95;100.00;100155.94;5010578;28;20033;-71
2021/12/15 00:31:23;;;;;;;34.10;15.40;;;;;;;4.95;100.00;100152.41;5010083;28;20500;-72
2021/12/15 00:33:49;;;;;;;42.42;16.05;;;;;;;4.94;100.00;100158.75;5013527;28;20036;-72
2021/12/15 00:36:14;;;;;;;35.40;15.02;;;;;;;4.94;100.00;100164.97;5012440;28;20034;-72
2021/12/15 00:38:41;;;;;;;32.00;13.98;;;;;;;4.92;100.00;100161.56;4998348;28;20026;-72
2021/12/15 00:41:07;;;;;;;33.67;14.48;;;;;;;4.94;100.00;100156.91;4995243;28;20076;-72
2021/12/15 00:43:34;;;;;;;30.35;13.80;;;;;;;4.92;100.00;100160.72;5013051;28;20057;-72
2021/12/15 00:46:00;;;;;;;25.75;13.15;;;;;;;4.86;100.00;100163.94;5013876;28;20117;-73
2021/12/15 00:48:26;;;;;;;33.92;13.90;;;;;;;4.91;100.00;100175.13;5003391;28;20105;-71
2021/12/15 00:50:51;;;;;;;33.63;14.25;;;;;;;4.80;100.00;100157.28;4998195;28;20041;-73
2021/12/15 00:53:17;;;;;;;33.22;14.77;;;;;;;4.90;100.00;100174.28;5006435;28;20030;-74
2021/12/15 00:55:43;;;;;;;36.38;14.50;;;;;;;4.93;100.00;100170.47;4994167;28;20057;-73
2021/12/15 00:58:10;;;;;;;52.08;16.02;;;;;;;4.88;100.00;100164.66;4998746;28;20030;-73
2021/12/15 01:00:46;;;;;;;59.92;19.48;;;;;;;4.93;100.00;100171.31;4998753;28;20042;-73
2021/12/15 01:03:11;;;;;;;61.10;19.52;;;;;;;4.81;100.00;100145.56;5006735;28;20093;-73
2021/12/15 01:05:41;;;;;;;68.88;19.67;;;;;;;4.85;100.00;100155.06;5024738;28;20064;-73
2021/12/15 01:08:08;;;;;;;;;;;;;;;4.90;100.00;100160.88;5014174;28;20041;-73
2021/12/15 01:11:04;;;;;;;63.60;18.80;;;;;;;4.79;100.00;100150.19;5012978;28;20521;-73
2021/12/15 01:21:49;;;;;;;64.40;18.75;;;;;;;4.93;100.00;100171.31;4995552;28;20071;-73
2021/12/15 01:24:15;;;;;;;61.00;19.02;;;;;;;4.96;100.00;100163.00;4993565;28;20088;-73
2021/12/15 01:26:41;;;;;;;61.00;18.30;;;;;;;4.96;100.00;100157.63;4993076;28;20066;-73
2021/12/15 01:29:06;;;;;;;51.55;17.17;;;;;;;4.95;100.00;100172.03;5003711;28;20057;-73
2021/12/15 01:31:32;;;;;;;58.85;18.55;;;;;;;4.91;100.00;100165.25;5011720;28;20026;-72
2021/12/15 01:33:57;;;;;;;58.67;18.75;;;;;;;4.87;100.00;100153.06;5010478;28;20113;-73
2021/12/15 01:36:23;;;;;;;50.72;17.38;;;;;;;5.02;100.00;100178.53;5011538;28;20136;-73
2021/12/15 01:38:48;;;;;;;55.22;17.63;;;;;;;4.96;100.00;100173.72;4997809;28;20029;-73
2021/12/15 01:41:20;;;;;;;56.65;17.95;;;;;;;5.00;100.00;100175.19;5009519;28;20026;-73
2021/12/15 01:49:26;;;;;;;69.97;20.05;;;;;;;5.10;100.00;100179.72;5012238;28;20037;-73
2021/12/15 01:51:53;;;;;;;75.03;20.48;;;;;;;5.09;100.00;100172.66;4981616;28;20026;-73
2021/12/15 01:54:20;;;;;;;65.72;18.75;;;;;;;5.17;100.00;100180.88;5011184;28;20026;-73
2021/12/15 01:56:46;;;;;;;75.65;20.98;;;;;;;5.17;100.00;100180.88;4993002;28;20515;-73
2021/12/15 01:59:13;;;;;;;66.47;19.48;;;;;;;5.00;100.00;100164.44;5007454;28;20034;-72
2021/12/15 02:01:40;;;;;;;67.35;19.83;;;;;;;5.03;100.00;100171.34;5008601;28;20034;-73
2021/12/15 02:04:05;;;;;;;73.88;19.58;;;;;;;5.00;100.00;100179.66;4999688;28;20462;-73
2021/12/15 02:06:31;;;;;;;65.47;18.08;;;;;;;5.01;100.00;100171.50;4996584;28;20120;-73
2021/12/15 02:08:56;;;;;;;71.68;19.55;;;;;;;5.18;100.00;100169.16;5005837;28;20026;-73
2021/12/15 02:11:23;;;;;;;62.25;19.48;;;;;;;5.10;100.00;100169.00;5000782;28;20026;-73
2021/12/15 02:13:48;;;;;;;63.08;18.73;;;;;;;4.98;100.00;100168.25;5006908;28;20033;-73
2021/12/15 02:16:13;;;;;;;62.05;19.40;;;;;;;4.73;100.00;100145.38;5012261;28;20026;-73
2021/12/15 02:18:42;;;;;;;60.78;18.58;;;;;;;4.95;100.00;100165.81;5011724;28;20018;-73
2021/12/15 02:21:20;;;;;;;58.20;18.08;;;;;;;4.98;100.00;100173.59;5021715;28;20022;-72
2021/12/15 02:23:50;;;;;;;55.53;18.88;;;;;;;4.98;100.00;100182.50;5002727;28;20399;-73
2021/12/15 02:26:23;;;;;;;46.45;18.00;;;;;;;4.93;100.00;100174.00;5005804;28;20043;-73
2021/12/15 02:28:52;;;;;;;51.05;17.73;;;;;;;4.90;100.00;100174.28;5012097;28;20029;-73
2021/12/15 02:31:35;;;;;;;47.00;17.55;;;;;;;4.87;100.00;100174.50;5005077;28;20038;-74
2021/12/15 02:39:38;;;;;;;47.20;17.50;;;;;;;4.76;100.00;100158.50;5008537;28;20644;-73
2021/12/15 02:42:04;;;;;;;47.08;17.55;;;;;;;4.83;100.00;100163.22;5006524;28;20053;-74
2021/12/15 02:44:29;;;;;;;50.78;19.00;;;;;;;4.74;100.00;100152.44;5006898;28;20053;-73
2021/12/15 02:46:55;;;;;;;54.97;19.05;;;;;;;4.75;100.00;100146.94;5010055;28;20061;-73
2021/12/15 02:49:26;;;;;;;52.38;17.60;;;;;;;4.81;100.00;100159.81;5001299;28;20045;-73
2021/12/15 02:51:53;;;;;;;41.17;15.65;;;;;;;4.79;100.00;100161.81;4999212;28;20026;-73
2021/12/15 02:54:20;;;;;;;42.40;15.38;;;;;;;4.85;100.00;100173.81;5011655;28;20064;-73
2021/12/15 02:56:48;;;;;;;42.42;15.43;;;;;;;4.70;100.00;100167.94;5010124;28;20029;-73
2021/12/15 02:59:15;;;;;;;39.90;15.38;;;;;;;4.70;100.00;100164.41;5010938;28;20057;-73
2021/12/15 03:02:15;;;;;;;44.63;15.43;;;;;;;4.79;100.00;100171.66;5011388;28;20065;-72
2021/12/15 03:05:08;;;;;;;;;;;;;;;4.84;100.00;100169.44;5012567;28;20029;-73
2021/12/15 03:07:33;;;;;;;43.08;14.18;;;;;;;4.77;100.00;100173.63;5014474;28;20366;-73
2021/12/15 03:15:33;;;;;;;47.25;15.95;;;;;;;4.84;100.00;100182.84;5014835;28;20487;-73
2021/12/15 03:18:17;;;;;;;47.72;17.02;;;;;;;4.82;100.00;100188.34;5012202;28;20030;-73
2021/12/15 03:21:00;;;;;;;45.53;15.60;;;;;;;4.80;100.00;100192.97;5014548;28;20064;-73
2021/12/15 03:23:29;;;;;;;47.53;16.15;;;;;;;4.69;100.00;100170.75;5025162;28;20411;-73
2021/12/15 03:25:55;;;;;;;45.30;14.55;;;;;;;4.80;100.00;100189.47;5034722;28;20033;-73
2021/12/15 03:37:20;;;;;;;43.45;15.75;;;;;;;4.85;100.00;100179.19;5014028;28;20053;-73
2021/12/15 03:39:39;;;;;;;49.05;16.50;;;;;;;4.79;100.00;100174.34;5004301;28;20073;-73
2021/12/15 03:42:06;;;;;;;40.47;15.43;;;;;;;4.71;100.00;100168.78;5004649;28;20033;-73
2021/12/15 03:44:35;;;;;;;43.90;16.30;;;;;;;4.68;100.00;100188.66;4993404;28;20026;-73
2021/12/15 03:47:03;;;;;;;38.40;15.27;;;;;;;4.69;100.00;100186.81;4999464;28;20507;-73
2021/12/15 03:49:29;;;;;;;36.25;15.15;;;;;;;4.61;100.00;100174.06;5012751;28;20565;-72
2021/12/15 03:51:54;;;;;;;37.72;13.77;;;;;;;4.65;100.00;100188.09;5014317;28;20033;-73
2021/12/15 03:54:20;;;;;;;36.78;13.65;;;;;;;4.65;100.00;100185.41;5014235;28;20080;-73
2021/12/15 03:56:48;;;;;;;34.42;14.48;;;;;;;4.64;100.00;100183.69;5013551;28;20022;-73
2021/12/15 03:59:13;;;;;;;42.50;14.23;;;;;;;4.58;100.00;100180.59;5013499;28;20076;-73
2021/12/15 04:01:39;;;;;;;35.53;14.68;;;;;;;4.61;100.00;100191.03;4996759;28;20022;-73
2021/12/15 04:04:06;;;;;;;34.05;14.13;;;;;;;4.56;100.00;100171.81;5014990;28;20041;-73
2021/12/15 04:06:38;;;;;;;40.75;14.85;;;;;;;4.64;100.00;100189.94;5014319;28;20032;-73
2021/12/15 04:09:11;;;;;;;40.75;14.95;;;;;;;4.64;100.00;100187.25;5011361;28;20033;-73
2021/12/15 04:11:37;;;;;;;37.95;14.25;;;;;;;4.54;100.00;100178.28;5013068;28;20026;-73
2021/12/15 04:14:10;;;;;;;41.33;14.10;;;;;;;4.66;100.00;100182.56;5013158;28;20105;-73
2021/12/15 04:16:57;;;;;;;41.45;15.48;;;;;;;4.65;100.00;100183.56;5014596;28;20060;-73
2021/12/15 04:19:23;;;;;;;43.28;14.88;;;;;;;4.59;100.00;100184.94;5014992;28;20032;-73
2021/12/15 04:21:48;;;;;;;36.55;14.73;;;;;;;4.71;100.00;100196.44;5012076;28;20085;-73
2021/12/15 04:24:17;;;;;;;35.67;14.77;;;;;;;4.83;100.00;100202.59;5015390;28;20037;-72
2021/12/15 04:26:45;;;;;;;35.63;14.20;;;;;;;4.85;100.00;100192.59;5014336;28;20029;-73
2021/12/15 04:29:10;;;;;;;31.05;13.93;;;;;;;4.75;100.00;100183.63;5014197;28;20033;-73
2021/12/15 04:31:39;;;;;;;31.25;14.13;;;;;;;4.90;100.00;100203.78;4994478;28;20415;-72
2021/12/15 04:34:07;;;;;;;33.33;14.30;;;;;;;4.98;100.00;100205.78;5014332;28;20381;-73
2021/12/15 04:36:43;;;;;;;34.67;13.63;;;;;;;5.07;100.00;100202.28;5014295;28;20018;-73
2021/12/15 04:39:13;;;;;;;34.38;15.13;;;;;;;4.99;100.00;100196.75;5012316;28;20034;-73
2021/12/15 04:41:40;;;;;;;31.45;12.63;;;;;;;4.83;100.00;100181.16;5016070;28;20030;-73
2021/12/15 04:44:10;;;;;;;35.38;14.27;;;;;;;4.92;100.00;100203.63;5033674;28;20021;-72
2021/12/15 04:46:40;;;;;;;30.42;13.57;;;;;;;5.00;100.00;100201.13;5022107;28;20044;-72
2021/12/15 04:49:08;;;;;;;32.95;14.15;;;;;;;4.89;100.00;100198.53;5010447;28;20080;-73
2021/12/15 04:51:34;;;;;;;29.65;13.55;;;;;;;4.87;100.00;100203.16;5025412;28;20033;-73
2021/12/15 04:53:59;;;;;;;33.42;12.88;;;;;;;4.84;100.00;100207.81;5033835;28;20029;-73
2021/12/15 04:56:25;;;;;;;29.70;12.35;;;;;;;4.88;100.00;100200.38;5029078;28;20022;-73
2021/12/15 04:58:52;;;;;;;34.45;14.77;;;;;;;4.86;100.00;100199.66;5032242;28;20053;-72
2021/12/15 05:01:18;;;;;;;30.42;12.55;;;;;;;4.91;100.00;100205.47;5036176;28;20018;-72
2021/12/15 05:03:44;;;;;;;38.88;13.80;;;;;;;4.85;100.00;100197.97;5031582;28;20102;-72
2021/12/15 05:06:11;;;;;;;35.13;14.07;;;;;;;4.75;100.00;100192.53;5020267;28;20161;-72
2021/12/15 05:08:37;;;;;;;33.58;13.02;;;;;;;4.80;100.00;100206.38;5004108;28;20057;-73
2021/12/15 05:11:04;;;;;;;37.30;14.25;;;;;;;4.81;100.00;100205.41;5012152;28;20037;-72
2021/12/15 05:13:30;;;;;;;37.83;13.23;;;;;;;4.81;100.00;100213.44;4984359;28;20364;-73
2021/12/15 05:15:56;;;;;;;35.72;14.23;;;;;;;4.81;100.00;100220.63;5012198;28;20017;-72
2021/12/15 05:18:21;;;;;;;35.72;14.35;;;;;;;4.78;100.00;100213.72;5013307;28;20030;-72
2021/12/15 05:20:51;;;;;;;36.08;13.45;;;;;;;4.80;100.00;100217.13;5013242;28;20073;-72
2021/12/15 05:23:17;;;;;;;37.80;14.57;;;;;;;4.80;100.00;100209.06;5013065;28;20044;-73
2021/12/15 05:25:44;;;;;;;36.45;14.05;;;;;;;4.82;100.00;100222.31;5013041;28;20022;-71
2021/12/15 05:28:10;;;;;;;32.63;13.98;;;;;;;4.82;100.00;100231.25;5012608;28;20365;-71
2021/12/15 05:30:36;;;;;;;33.28;14.18;;;;;;;4.82;100.00;100222.31;5012855;28;20033;-71
2021/12/15 05:33:01;;;;;;;30.77;13.10;;;;;;;4.83;100.00;100224.88;5013227;28;20087;-72
2021/12/15 05:35:27;;;;;;;38.80;15.00;;;;;;;4.80;100.00;100218.94;5012981;28;20021;-72
2021/12/15 05:37:58;;;;;;;35.63;14.00;;;;;;;4.81;100.00;100217.97;4995153;28;20026;-72
2021/12/15 05:40:25;;;;;;;35.33;13.70;;;;;;;4.84;100.00;100220.38;4992033;28;20022;-72
2021/12/15 05:42:56;;;;;;;35.50;13.50;;;;;;;4.67;100.00;100194.19;5002490;28;20503;-72
2021/12/15 05:45:21;;;;;;;33.22;13.88;;;;;;;4.87;100.00;100225.47;5012649;28;20049;-72
2021/12/15 05:47:47;;;;;;;36.75;13.88;;;;;;;4.88;100.00;100231.69;5021447;28;20051;-77
2021/12/15 05:50:13;;;;;;;34.15;14.32;;;;;;;4.79;100.00;100219.91;4996843;28;20084;-74
2021/12/15 05:52:38;;;;;;;35.95;13.75;;;;;;;4.94;100.00;100240.06;5012616;28;20029;-73
2021/12/15 05:55:06;;;;;;;31.40;13.77;;;;;;;4.93;100.00;100237.53;5012605;28;20364;-73
2021/12/15 05:57:33;;;;;;;33.75;13.70;;;;;;;4.81;100.00;100223.31;5012537;28;20057;-74
2021/12/15 05:59:58;;;;;;;39.45;14.10;;;;;;;4.89;100.00;100246.81;5013077;28;20084;-73
2021/12/15 06:02:23;;;;;;;33.40;12.88;;;;;;;4.88;100.00;100256.69;5012362;28;20025;-74
2021/12/15 06:04:49;;;;;;;33.95;14.55;;;;;;;4.90;100.00;100249.38;5003828;28;20383;-72
2021/12/15 06:07:14;;;;;;;35.25;14.27;;;;;;;4.82;100.00;100241.97;4999922;28;20507;-73
2021/12/15 06:09:40;;;;;;;34.08;13.90;;;;;;;4.83;100.00;100249.03;5006428;28;20026;-70
2021/12/15 06:12:07;;;;;;;35.40;14.50;;;;;;;4.89;100.00;100249.47;5000760;28;20032;-71
2021/12/15 06:14:33;;;;;;;33.47;13.82;;;;;;;4.87;100.00;100249.59;5020949;28;20419;-70
2021/12/15 06:17:08;;;;;;;32.17;14.05;;;;;;;4.85;100.00;100246.22;4992922;28;20026;-71
2021/12/15 06:19:33;;;;;;;33.17;13.57;;;;;;;4.92;100.00;100243.84;4994347;28;20022;-73
2021/12/15 06:21:59;;;;;;;35.28;13.75;;;;;;;4.95;100.00;100255.19;5006799;28;20113;-71
2021/12/15 06:24:25;;;;;;;34.10;14.15;;;;;;;4.93;100.00;100251.78;5010288;28;20098;-70
2021/12/15 06:26:51;;;;;;;35.22;12.57;;;;;;;4.90;100.00;100256.53;5012322;28;20163;-71
2021/12/15 06:29:17;;;;;;;39.22;15.02;;;;;;;4.88;100.00;100251.31;5010675;28;20030;-70
2021/12/15 06:31:43;;;;;;;32.05;12.68;;;;;;;4.73;100.00;100237.38;5010641;28;20033;-70
2021/12/15 06:34:08;;;;;;;29.83;12.52;;;;;;;4.80;100.00;100251.97;5003531;28;20121;-70
2021/12/15 06:36:35;;;;;;;32.47;13.70;;;;;;;4.89;100.00;100262.88;5001153;28;20072;-70
2021/12/15 06:39:04;;;;;;;28.77;12.60;;;;;;;4.87;100.00;100259.47;5006834;28;20030;-70
2021/12/15 06:41:30;;;;;;;32.53;13.55;;;;;;;4.88;100.00;100269.25;5011422;28;20425;-70
2021/12/15 06:43:57;;;;;;;35.22;13.15;;;;;;;4.89;100.00;100270.94;4987975;28;20057;-70
2021/12/15 06:57:32;;;;;;;25.98;11.88;;;;;;;4.88;100.00;100262.03;5009328;28;20095;-73
2021/12/15 06:59:58;;;;;;;25.88;11.40;;;;;;;4.91;100.00;100277.03;5012702;28;20029;-70
2021/12/15 07:02:24;;;;;;;28.75;12.57;;;;;;;4.94;100.00;100282.13;5021259;28;20022;-70
2021/12/15 07:04:50;;;;;;;28.05;12.40;;;;;;;4.96;100.00;100283.69;5015909;28;20056;-70
2021/12/15 07:07:15;;;;;;;28.75;13.13;;;;;;;4.96;100.00;100289.06;4997316;28;20113;-70
2021/12/15 07:09:41;;;;;;;29.15;12.52;;;;;;;4.82;100.00;100268.78;4998502;28;20041;-73
2021/12/15 07:12:08;;;;;;;26.73;12.10;;;;;;;5.00;100.00;100301.25;5015133;28;20026;-73
2021/12/15 07:14:33;;;;;;;26.65;11.30;;;;;;;4.93;100.00;100301.88;5007474;28;20026;-73
2021/12/15 07:16:59;;;;;;;27.05;10.82;;;;;;;4.86;100.00;100288.13;5011415;28;20488;-72
2021/12/15 07:22:07;;;;;;;28.33;12.18;;;;;;;4.94;100.00;100308.94;5008134;28;20084;-74
2021/12/15 07:24:35;;;;;;;29.70;10.90;;;;;;;4.86;100.00;100301.53;5012967;28;20422;-73
2021/12/15 07:27:01;;;;;;;18.38;9.63;;;;;;;4.84;100.00;100298.97;5011077;28;20044;-73
2021/12/15 07:29:27;;;;;;;20.80;9.68;;;;;;;4.95;100.00;100319.56;5014292;28;20121;-73
2021/12/15 07:31:54;;;;;;;21.08;9.30;;;;;;;4.98;100.00;100329.16;5009293;28;20058;-72
2021/12/15 07:34:19;;;;;;;19.02;8.85;;;;;;;4.99;100.00;100315.59;5015177;28;20029;-72
2021/12/15 07:36:44;;;;;;;19.13;9.07;;;;;;;4.96;100.00;100310.50;5014346;28;20026;-73
2021/12/15 07:39:11;;;;;;;16.88;9.02;;;;;;;5.01;100.00;100313.66;4999442;28;20030;-70
2021/12/15 07:41:48;;;;;;;17.45;8.30;;;;;;;5.07;100.00;100333.75;5011042;28;20053;-71
2021/12/15 07:44:15;;;;;;;20.17;8.02;;;;;;;5.09;100.00;100333.63;5015812;28;20479;-71
2021/12/15 07:46:40;;;;;;;18.55;9.55;;;;;;;5.01;100.00;100316.34;5017517;28;20030;-68
2021/12/15 07:49:05;;;;;;;20.13;9.50;;;;;;;5.06;100.00;100321.31;5016829;28;20040;-75
2021/12/15 07:51:31;;;;;;;23.63;10.25;;;;;;;5.15;100.00;100333.94;5011061;28;20030;-69
2021/12/15 07:53:56;;;;;;;22.27;10.30;;;;;;;5.19;100.00;100342.59;5014558;28;20044;-70
2021/12/15 07:56:21;;;;;;;19.85;9.40;;;;;;;5.20;100.00;100330.88;5012704;28;20026;-70
2021/12/15 07:58:47;;;;;;;22.40;9.65;;;;;;;5.15;100.00;100333.09;4996427;28;20041;-73
2021/12/15 08:01:12;;;;;;;18.00;8.88;;;;;;;5.15;100.00;100333.09;5005976;28;20032;-71
2021/12/15 08:03:40;;;;;;;16.38;7.95;;;;;;;5.21;100.00;100343.28;5014540;28;20030;-70
2021/12/15 08:06:06;;;;;;;17.92;8.35;;;;;;;5.26;100.00;100344.59;5025561;28;20123;-69
2021/12/15 08:08:32;;;;;;;15.63;8.43;;;;;;;5.32;100.00;100345.91;5018953;28;20081;-69
2021/12/15 08:10:58;;;;;;;19.20;8.90;;;;;;;5.34;100.00;100343.94;5014283;28;20029;-70
2021/12/15 08:13:28;;;;;;;22.30;11.07;;;;;;;5.36;100.00;100350.03;5015773;28;20028;-70
2021/12/15 08:15:54;;;;;;;28.02;12.30;;;;;;;5.37;100.00;100350.88;5012391;28;20065;-69
2021/12/15 08:18:19;;;;;;;31.60;13.43;;;;;;;5.33;100.00;100347.63;5003459;28;20054;-71
2021/12/15 08:20:45;;;;;;;34.10;12.93;;;;;;;5.33;100.00;100352.13;5012617;28;20069;-69
2021/12/15 08:23:10;;;;;;;27.10;12.52;;;;;;;5.34;100.00;100338.56;5012206;28;20029;-69
2021/12/15 08:25:37;;;;;;;31.73;13.85;;;;;;;5.40;100.00;100353.31;5013397;28;20058;-73
2021/12/15 08:28:05;;;;;;;39.45;14.80;;;;;;;5.52;100.00;100354.91;5013805;28;20028;-69
2021/12/15 08:30:31;;;;;;;33.70;13.98;;;;;;;5.40;100.00;100334.53;4995407;28;20036;-70
2021/12/15 08:33:01;;;;;;;31.05;14.02;;;;;;;5.61;100.00;100355.97;5011365;28;20025;-69
2021/12/15 08:35:28;;;;;;;;;;;;;;;5.69;100.00;100359.69;5014610;28;20101;-70
2021/12/15 08:37:54;;;;;;;30.60;12.30;;;;;;;5.57;100.00;100350.00;5017815;28;19917;-71
2021/12/15 08:40:21;;;;;;;20.67;10.88;;;;;;;5.95;100.00;100370.03;5032807;28;20048;-75
2021/12/15 08:42:47;;;;;;;16.45;8.88;;;;;;;6.01;100.00;100368.63;5028641;28;20052;-72
2021/12/15 08:45:13;;;;;;;17.95;9.05;;;;;;;6.03;100.00;100374.72;5029102;28;20025;-72
2021/12/15 08:47:39;;;;;;;17.02;9.15;;;;;;;6.07;100.00;100370.75;5030495;28;20476;-71
2021/12/15 08:50:07;;;;;;;18.13;9.77;;;;;;;6.06;100.00;100371.75;5030897;28;20025;-70
2021/12/15 08:52:33;;;;;;;17.20;8.85;;;;;;;5.90;100.00;100366.84;5028859;28;20034;-71
2021/12/15 08:54:58;;;;;;;19.80;8.88;;;;;;;5.96;100.00;100374.41;5034246;28;20021;-74
2021/12/15 08:57:24;;;;;;;17.58;9.02;;;;;;;5.95;100.00;100370.03;5030066;28;20057;-72
2021/12/15 08:59:50;;;;;;;16.58;8.98;;;;;;;5.97;100.00;100362.66;5037373;28;20014;-67
2021/12/15 09:02:15;;;;;;;18.65;9.50;;;;;;;6.01;100.00;100352.50;5034959;28;20022;-70
2021/12/15 09:04:40;;;;;;;26.10;11.15;;;;;;;6.00;100.00;100357.03;5029143;28;20029;-70
2021/12/15 09:07:06;;;;;;;26.58;10.07;;;;;;;5.93;100.00;100374.63;5030405;28;20025;-70
2021/12/15 09:09:33;;;;;;;19.20;9.55;;;;;;;5.90;100.00;100373.06;5033904;28;20069;-70
2021/12/15 09:11:58;;;;;;;19.52;9.55;;;;;;;5.75;100.00;100352.94;5014631;28;20480;-72
2021/12/15 09:14:24;;;;;;;19.85;11.18;;;;;;;5.98;100.00;100375.13;5009769;28;20088;-72
2021/12/15 09:16:53;;;;;;;21.80;10.40;;;;;;;5.97;100.00;100372.56;4994622;28;20026;-72
2021/12/15 09:19:18;;;;;;;;;;;;;;;5.97;100.00;100386.84;4995703;28;20018;-72
2021/12/15 09:21:44;;;;;;;19.58;9.25;;;;;;;6.03;100.00;100380.94;5012403;28;19932;-72
2021/12/15 09:24:12;;;;;;;18.52;9.35;;;;;;;6.05;100.00;100392.41;5007269;28;20061;-72
2021/12/15 09:26:37;;;;;;;18.20;9.32;;;;;;;6.05;100.00;100381.66;5013608;28;20060;-74
2021/12/15 09:29:05;;;;;;;20.58;10.02;;;;;;;6.09;99.39;100384.91;4990697;28;20017;-73
2021/12/15 09:31:31;;;;;;;23.08;10.52;;;;;;;6.24;99.24;100383.56;5012794;28;20434;-73
2021/12/15 09:33:58;;;;;;;17.80;10.20;;;;;;;6.30;98.12;100385.69;5010534;28;20480;-74
2021/12/15 09:36:25;;;;;;;17.83;10.20;;;;;;;6.29;97.75;100364.34;5007566;28;20049;-73
2021/12/15 09:38:56;;;;;;;18.30;10.25;;;;;;;6.52;96.88;100390.00;4998417;28;20017;-71
2021/12/15 09:41:23;;;;;;;18.83;9.82;;;;;;;6.34;96.55;100365.63;5044819;22;20072;-72
2021/12/15 09:43:53;;;;;;;21.83;10.20;;;;;;;6.53;95.87;100372.88;5034391;28;20025;-73
2021/12/15 09:46:37;;;;;;;18.30;9.63;;;;;;;6.39;94.76;100370.56;5032470;28;20021;-74
2021/12/15 10:19:09;;;;;;;17.35;9.15;;;;;;;6.50;91.70;100361.56;5031164;28;20572;-74
2021/12/15 10:21:33;;;;;;;19.40;9.20;;;;;;;6.63;92.55;100393.53;5050430;28;20041;-73
2021/12/15 10:23:59;;;;;;;15.77;8.38;;;;;;;6.48;91.97;100350.09;5051086;28;20490;-72
2021/12/15 10:26:25;;;;;;;15.20;7.75;;;;;;;6.67;91.59;100387.75;5051967;28;20030;-72
2021/12/15 10:28:52;;;;;;;15.35;7.50;;;;;;;6.67;91.51;100381.53;5036527;28;20054;-72
2021/12/15 10:31:23;;;;;;;15.23;7.72;;;;;;;6.78;91.33;100384.91;5033559;28;20032;-71
2021/12/15 10:33:54;;;;;;;16.83;8.27;;;;;;;6.85;91.42;100387.91;5055586;28;20025;-73
2021/12/15 10:36:26;;;;;;;16.05;7.65;;;;;;;6.76;90.53;100372.63;5037200;28;20029;-75
2021/12/15 10:38:55;;;;;;;16.33;8.02;;;;;;;6.75;90.21;100379.81;5049504;28;20025;-75
2021/12/15 10:41:26;;;;;;;13.73;7.57;;;;;;;6.72;90.51;100374.72;5050221;28;20030;-75
2021/12/15 10:43:55;;;;;;;15.27;7.63;;;;;;;6.64;90.07;100355.75;5036769;28;20024;-75
2021/12/15 10:46:24;;;;;;;13.52;7.30;;;;;;;6.89;89.29;100380.41;5055222;28;20132;-74
2021/12/15 10:48:56;;;;;;;13.48;8.15;;;;;;;6.97;89.21;100372.50;5036701;28;20028;-70
2021/12/15 10:51:53;;;;;;;15.63;7.90;;;;;;;6.97;89.51;100372.50;5054131;28;20035;-69
2021/12/15 10:54:28;;;;;;;13.00;7.60;;;;;;;6.71;89.72;100346.16;5049114;28;20096;-67
2021/12/15 10:57:04;;;;;;;14.85;8.15;;;;;;;6.82;89.64;100371.22;5043389;28;20086;-75
2021/12/15 10:59:33;;;;;;;15.43;7.35;;;;;;;6.83;89.27;100375.59;5052982;28;20025;-71
2021/12/15 11:02:08;;;;;;;17.83;8.25;;;;;;;6.74;89.92;100366.53;5065620;28;20028;-71
2021/12/15 11:04:39;;;;;;;14.88;8.15;;;;;;;6.69;89.61;100371.50;5052906;28;20024;-71
2021/12/15 11:07:25;;;;;;;15.77;8.23;;;;;;;6.91;89.31;100368.50;5052864;28;20024;-71
2021/12/15 11:10:10;;;;;;;15.52;8.20;;;;;;;6.97;89.81;100367.97;5024084;28;20039;-71
2021/12/15 11:12:46;;;;;;;14.32;7.75;;;;;;;7.05;88.86;100364.56;5038561;28;20116;-71
2021/12/15 11:15:23;;;;;;;17.02;8.63;;;;;;;7.14;87.95;100371.78;5059310;28;20478;-71
2021/12/15 11:18:12;;;;;;;17.52;7.80;;;;;;;6.92;87.71;100353.25;5042829;28;20087;-71
2021/12/15 11:20:44;;;;;;;13.63;8.00;;;;;;;6.67;88.39;100308.91;5039855;28;20021;-71
2021/12/15 11:23:21;;;;;;;13.98;7.75;;;;;;;7.04;87.79;100365.53;5071322;28;20086;-71
2021/12/15 11:25:52;;;;;;;14.23;7.85;;;;;;;6.74;87.79;100335.09;5063970;28;20352;-72
2021/12/15 11:28:32;;;;;;;16.20;9.05;;;;;;;6.79;89.55;100359.75;5039040;28;20381;-70
2021/12/15 11:30:59;;;;;;;14.30;8.38;;;;;;;6.79;89.60;100353.53;5062292;28;20505;-70
2021/12/15 11:33:34;;;;;;;15.68;8.18;;;;;;;6.72;89.85;100352.38;5052571;28;20055;-71
2021/12/15 11:36:01;;;;;;;18.83;8.48;;;;;;;6.89;89.61;100343.63;5052454;28;20020;-70
2021/12/15 11:38:33;;;;;;;15.15;8.02;;;;;;;6.82;88.64;100337.09;5025139;28;20025;-70
2021/12/15 11:40:59;;;;;;;15.82;8.85;;;;;;;6.83;89.41;100346.00;5041154;28;20028;-70
2021/12/15 11:43:29;;;;;;;14.93;7.82;;;;;;;6.77;89.24;100342.03;5052420;28;20025;-70
2021/12/15 11:45:54;;;;;;;14.13;8.32;;;;;;;6.69;89.75;100342.75;5035698;28;20044;-70
2021/12/15 11:48:23;;;;;;;14.55;7.55;;;;;;;6.51;90.19;100339.88;5051910;28;20474;-70
2021/12/15 11:50:52;;;;;;;14.55;8.25;;;;;;;6.48;90.22;100301.69;5051706;28;20031;-70
2021/12/15 11:53:39;;;;;;;15.63;7.75;;;;;;;6.73;89.93;100337.91;5052272;28;20024;-70
2021/12/15 11:56:16;;;;;;;13.15;7.78;;;;;;;6.83;89.50;100335.25;5051887;28;20020;-70
2021/12/15 11:58:43;;;;;;;14.65;8.10;;;;;;;6.99;88.85;100322.91;5054457;28;20059;-70
2021/12/15 12:01:08;;;;;;;12.65;7.97;;;;;;;6.92;88.11;100329.03;5065099;28;20112;-70
2021/12/15 12:03:36;;;;;;;14.90;7.68;;;;;;;6.72;87.92;100291.34;5053894;28;20036;-70
2021/12/15 12:06:02;;;;;;;12.90;7.13;;;;;;;6.82;87.66;100303.97;5060643;28;20056;-70
2021/12/15 12:08:28;;;;;;;14.70;7.85;;;;;;;6.89;86.95;100310.44;5050883;28;20036;-71
2021/12/15 12:10:56;;;;;;;14.38;8.05;;;;;;;7.09;86.47;100327.44;5030939;28;20024;-72
2021/12/15 12:13:27;;;;;;;13.32;7.45;;;;;;;7.00;86.46;100329.16;5031936;28;20505;-72
2021/12/15 12:16:00;;;;;;;13.68;8.35;;;;;;;6.98;86.99;100326.59;5051432;28;20017;-72
2021/12/15 12:18:28;;;;;;;16.90;8.50;;;;;;;6.97;87.71;100329.44;5051487;28;20055;-72
2021/12/15 12:20:56;;;;;;;12.90;7.55;;;;;;;6.94;86.29;100319.81;5050896;28;20052;-72
2021/12/15 12:23:28;;;;;;;12.75;7.13;;;;;;;6.80;86.79;100298.72;5051338;28;20486;-73
2021/12/15 12:26:01;;;;;;;10.77;6.40;;;;;;;7.10;84.96;100324.63;5051543;28;20094;-72
2021/12/15 12:28:33;;;;;;;11.73;6.50;;;;;;;6.95;85.59;100318.81;5038704;28;20465;-71
2021/12/15 12:31:21;;;;;;;9.93;5.95;;;;;;;7.14;84.82;100320.63;5032611;28;20021;-71
2021/12/15 12:33:47;;;;;;;15.88;7.70;;;;;;;6.94;85.40;100317.13;5043099;28;20116;-72
2021/12/15 12:36:19;;;;;;;12.13;7.30;;;;;;;6.77;86.82;100274.78;5044488;28;20037;-71
2021/12/15 12:38:51;;;;;;;9.23;6.47;;;;;;;6.97;86.76;100302.53;5053981;28;20128;-72